This is the latest recevied weather packets stored in our database for station/object NI4CE-10. If no packets are shown the sender has not sent any weather packets the latest 10 day(s).
| Time | Temp. | Humidity | Pressure | Rain* | Wind** | Luminosity | Snow |
|---|---|---|---|---|---|---|---|
| 1777571477 | 32.22° C | 100% | 1014.9 hPa | 0 mm | - | - | - |
| 1777571177 | 32.22° C | 100% | 1014.9 hPa | 0 mm | - | - | - |
| 1777570878 | 31.67° C | 100% | 1014.9 hPa | 0 mm | - | - | - |
| 1777570577 | 31.11° C | 100% | 1014.9 hPa | 0 mm | - | - | - |
| 1777570278 | 31.11° C | 100% | 1015 hPa | 0 mm | - | - | - |
| 1777569978 | 31.11° C | 100% | 1015 hPa | 0 mm | - | - | - |
| 1777569678 | 32.22° C | 100% | 1015.1 hPa | 0 mm | - | - | - |
| 1777569378 | 31.67° C | 100% | 1015 hPa | 0 mm | - | - | - |
| 1777569078 | 32.22° C | 100% | 1015 hPa | 0 mm | - | - | - |
| 1777568778 | 32.22° C | 100% | 1015.1 hPa | 0 mm | - | - | - |
| 1777568478 | 31.11° C | 100% | 1015.2 hPa | 0 mm | - | - | - |
| 1777568263 | 32.22° C | 100% | 1015.3 hPa | 0 mm | - | - | - |
| 1777568178 | 30.56° C | 100% | 1015.1 hPa | 0 mm | - | - | - |
| 1777567878 | 30° C | 100% | 1015.2 hPa | 0 mm | - | - | - |
| 1777567578 | 32.22° C | 100% | 1015.3 hPa | 0 mm | - | - | - |
| 1777567278 | 31.11° C | 100% | 1015.3 hPa | 0 mm | - | - | - |
| 1777566978 | 31.67° C | 100% | 1015.4 hPa | 0 mm | - | - | - |
| 1777566714 | 31.11° C | 100% | 1015.3 hPa | 0 mm | - | - | - |
| 1777566678 | 31.67° C | 100% | 1015.4 hPa | 0 mm | - | - | - |
| 1777566378 | 31.11° C | 100% | 1015.4 hPa | 0 mm | - | - | - |
| 1777566078 | 31.11° C | 100% | 1015.3 hPa | 0 mm | - | - | - |
| 1777565778 | 31.11° C | 100% | 1015.3 hPa | 0 mm | - | - | - |
| 1777565478 | 31.11° C | 100% | 1015.3 hPa | 0 mm | - | - | - |
| 1777565178 | 30.56° C | 100% | 1015.2 hPa | 0 mm | - | - | - |
| 1777564878 | 31.11° C | 100% | 1015.3 hPa | 0 mm | - | - | - |
* Rain latest hour (hover to see other rain measurements)
** Current wind speed in m/s (hover to see current wind gust speed)